Time;durP1;ratioP1;P1;durP2;ratioP2;P2;SDS_P1;SDS_P2;PMS_P1;PMS_P2;Temp;Humidity;BMP_temperature;BMP_pressure;BME280_temperature;BME280_humidity;BME280_pressure;Samples;Min_cycle;Max_cycle;Signal;HPM_P1;HPM_P2
2022/02/16 00:00:57;;;;;;;67.53;27.48;;;;;;;0.41;76.53;99279.86;1759390;80;20973;-82
2022/02/16 00:03:24;;;;;;;76.25;30.88;;;;;;;0.44;77.65;99285.02;1754549;81;21013;-80
2022/02/16 00:05:50;;;;;;;78.15;28.40;;;;;;;0.47;78.36;99283.38;1757743;81;20995;-79
2022/02/16 00:08:18;;;;;;;76.37;30.27;;;;;;;0.50;75.76;99277.48;1757030;79;20944;-83
2022/02/16 00:10:44;;;;;;;74.15;29.87;;;;;;;0.48;77.03;99273.61;1755327;78;21026;-83
2022/02/16 00:13:11;;;;;;;70.25;28.05;;;;;;;0.52;77.81;99285.62;1774617;78;20999;-82
2022/02/16 00:15:37;;;;;;;72.58;28.80;;;;;;;0.48;78.15;99263.38;1763608;81;21539;-82
2022/02/16 00:18:06;;;;;;;69.05;28.05;;;;;;;0.60;74.99;99271.69;1755740;81;21086;-82
2022/02/16 00:20:32;;;;;;;64.95;26.57;;;;;;;0.54;79.01;99262.63;1739580;78;21044;-82
2022/02/16 00:23:00;;;;;;;73.10;27.90;;;;;;;0.57;76.64;99261.39;1755763;81;20991;-81
2022/02/16 00:25:26;;;;;;;67.85;28.30;;;;;;;0.53;77.72;99260.47;1768870;80;21004;-82
2022/02/16 00:27:54;;;;;;;63.33;27.65;;;;;;;0.56;77.79;99273.75;1748582;82;20987;-82
2022/02/16 00:30:23;;;;;;;68.52;28.70;;;;;;;0.59;75.66;99280.19;1751225;81;21019;-82
2022/02/16 00:32:49;;;;;;;67.27;26.27;;;;;;;0.59;77.28;99275.92;1761872;81;21020;-80
2022/02/16 00:35:16;;;;;;;71.60;29.18;;;;;;;0.62;77.76;99275.53;1753810;81;20997;-80
2022/02/16 00:37:43;;;;;;;71.00;28.67;;;;;;;0.62;77.64;99276.81;1755904;81;21016;-80
2022/02/16 00:40:11;;;;;;;73.85;28.67;;;;;;;0.62;77.45;99265.30;1771256;80;20981;-80
2022/02/16 00:42:39;;;;;;;71.02;29.12;;;;;;;0.59;76.98;99268.25;1744043;81;21640;-82
2022/02/16 00:45:05;;;;;;;68.72;26.30;;;;;;;0.57;77.58;99263.52;1760680;81;20964;-83
2022/02/16 00:47:33;;;;;;;65.70;25.55;;;;;;;0.57;75.07;99258.41;1754617;82;21016;-82
2022/02/16 00:49:59;;;;;;;74.45;28.70;;;;;;;0.49;76.47;99256.55;1774822;80;21066;-81
2022/02/16 00:52:27;;;;;;;65.57;25.50;;;;;;;0.46;77.27;99250.98;1764243;80;20996;-81
2022/02/16 00:54:54;;;;;;;66.87;28.12;;;;;;;0.43;76.92;99247.07;1757792;81;21046;-82
2022/02/16 00:57:20;;;;;;;75.45;28.50;;;;;;;0.42;78.38;99242.81;1755842;79;21066;-82
2022/02/16 00:59:47;;;;;;;65.52;25.85;;;;;;;0.44;78.54;99247.53;1756623;81;20940;-81
2022/02/16 01:02:13;;;;;;;73.40;28.47;;;;;;;0.42;77.65;99245.36;1754303;81;21111;-82
2022/02/16 01:04:40;;;;;;;65.47;24.85;;;;;;;0.38;76.82;99242.31;1768407;81;21016;-82
2022/02/16 01:07:07;;;;;;;71.45;26.35;;;;;;;0.36;77.95;99242.70;1776775;80;21111;-82
2022/02/16 01:09:33;;;;;;;62.78;26.27;;;;;;;0.35;78.28;99243.52;1785276;79;21489;-82
2022/02/16 01:12:00;;;;;;;61.65;25.40;;;;;;;0.37;77.66;99241.42;1743181;81;21003;-82
2022/02/16 01:14:31;;;;;;;65.47;25.70;;;;;;;0.38;77.78;99241.03;1741530;81;21048;-80
2022/02/16 01:17:09;;;;;;;66.30;23.95;;;;;;;0.38;77.02;99237.19;1766190;81;20989;-80
2022/02/16 01:19:52;;;;;;;65.85;26.05;;;;;;;0.38;77.70;99229.52;1773162;80;21107;-79
2022/02/16 01:22:19;;;;;;;64.65;26.70;;;;;;;0.38;78.08;99225.26;1739293;81;21050;-80
2022/02/16 01:24:45;;;;;;;67.80;26.20;;;;;;;0.35;78.47;99217.52;1751857;81;21488;-80
2022/02/16 01:27:12;;;;;;;65.52;26.90;;;;;;;0.33;78.45;99227.28;1740673;81;21031;-79
2022/02/16 01:29:39;;;;;;;53.55;23.83;;;;;;;0.32;76.62;99224.27;1767516;80;21052;-80
2022/02/16 01:32:19;;;;;;;65.40;26.20;;;;;;;0.25;77.26;99222.02;1758372;81;21001;-80
2022/02/16 01:34:47;;;;;;;65.83;25.68;;;;;;;0.25;78.38;99222.45;1766690;81;21496;-80
2022/02/16 01:37:14;;;;;;;62.98;23.62;;;;;;;0.25;78.69;99227.56;1786729;80;20990;-80
2022/02/16 01:39:40;;;;;;;57.33;25.30;;;;;;;0.25;79.25;99220.75;1784569;79;20984;-79
2022/02/16 01:42:07;;;;;;;56.90;22.98;;;;;;;0.24;78.44;99218.16;1780760;79;21021;-80
2022/02/16 01:44:34;;;;;;;65.78;25.82;;;;;;;0.26;78.45;99216.48;1757533;81;21043;-80
2022/02/16 01:47:05;;;;;;;61.42;26.65;;;;;;;0.29;78.72;99220.39;1776659;79;20945;-83
2022/02/16 01:49:34;;;;;;;60.03;23.40;;;;;;;0.32;78.62;99217.48;1775941;80;21028;-80
2022/02/16 01:52:02;;;;;;;61.50;25.55;;;;;;;0.37;79.06;99211.16;1749478;78;21016;-82
2022/02/16 01:54:31;;;;;;;55.48;22.60;;;;;;;0.41;78.49;99210.80;1776307;79;21067;-83
2022/02/16 01:56:58;;;;;;;69.15;25.80;;;;;;;0.42;78.74;99211.23;1776709;80;21016;-82
2022/02/16 01:59:27;;;;;;;59.93;23.70;;;;;;;0.44;78.14;99212.11;1786901;80;21002;-81
2022/02/16 02:01:59;;;;;;;60.23;23.32;;;;;;;0.43;78.81;99219.36;1753833;80;21013;-80
2022/02/16 02:04:26;;;;;;;65.25;25.72;;;;;;;0.47;78.90;99221.98;1761570;80;20976;-79
2022/02/16 02:06:53;;;;;;;55.80;24.00;;;;;;;0.50;77.80;99224.61;1743568;81;21027;-81
2022/02/16 02:09:21;;;;;;;60.83;25.57;;;;;;;0.52;78.08;99225.92;1762782;78;20982;-82
2022/02/16 02:11:49;;;;;;;56.65;22.50;;;;;;;0.55;78.04;99224.26;1773240;79;21092;-82
2022/02/16 02:14:16;;;;;;;62.43;25.25;;;;;;;0.55;78.58;99210.61;1760964;81;21004;-82
2022/02/16 02:16:44;;;;;;;55.67;24.63;;;;;;;0.56;77.99;99210.64;1769074;81;21051;-81
2022/02/16 02:19:11;;;;;;;59.55;23.45;;;;;;;0.55;77.74;99208.05;1773287;80;21481;-80
2022/02/16 02:21:38;;;;;;;61.53;24.98;;;;;;;0.53;77.96;99209.30;1758294;81;20979;-82
2022/02/16 02:24:05;;;;;;;62.48;23.42;;;;;;;0.50;78.20;99216.94;1756585;79;21006;-82
2022/02/16 02:26:31;;;;;;;57.58;24.67;;;;;;;0.46;78.37;99215.56;1787417;79;21023;-82
2022/02/16 02:29:01;;;;;;;58.65;22.48;;;;;;;0.41;76.95;99212.08;1791572;77;20946;-82
2022/02/16 02:31:37;;;;;;;62.98;25.95;;;;;;;0.38;77.67;99215.45;1787873;77;20997;-82
2022/02/16 02:34:05;;;;;;;62.80;23.90;;;;;;;0.36;77.06;99207.74;1775046;81;20992;-79
2022/02/16 02:36:32;;;;;;;59.50;23.02;;;;;;;0.30;76.33;99208.92;1776382;80;21023;-83
2022/02/16 02:38:59;;;;;;;62.10;23.45;;;;;;;0.17;76.70;99183.95;1768359;80;20969;-82
2022/02/16 02:41:26;;;;;;;57.08;23.75;;;;;;;0.19;77.45;99197.62;1761737;79;21000;-82
2022/02/16 02:43:53;;;;;;;58.68;23.52;;;;;;;0.22;77.35;99201.92;1752204;80;20945;-82
2022/02/16 02:46:19;;;;;;;54.67;22.13;;;;;;;0.23;77.74;99200.68;1767562;81;21039;-81
2022/02/16 02:48:51;;;;;;;57.70;24.63;;;;;;;0.25;77.85;99203.27;1749027;80;20975;-82
2022/02/16 02:51:19;;;;;;;53.48;23.80;;;;;;;0.27;77.51;99204.16;1771873;80;21412;-81
2022/02/16 02:53:46;;;;;;;61.95;23.85;;;;;;;0.27;77.44;99200.33;1779243;79;20964;-80
2022/02/16 02:56:13;;;;;;;63.25;24.98;;;;;;;0.25;77.76;99186.22;1770699;81;21033;-81
2022/02/16 02:58:40;;;;;;;62.13;24.72;;;;;;;0.26;77.87;99186.69;1771846;81;20981;-83
2022/02/16 03:01:07;;;;;;;69.07;24.55;;;;;;;0.18;78.67;99186.97;1781501;80;21011;-82
2022/02/16 03:03:36;;;;;;;52.43;21.40;;;;;;;0.15;78.85;99177.53;1739086;80;20965;-82
2022/02/16 03:06:07;;;;;;;57.80;24.20;;;;;;;0.06;78.96;99176.50;1781927;80;20988;-79
2022/02/16 03:08:34;;;;;;;56.80;22.85;;;;;;;0.01;79.12;99175.14;1780865;80;21507;-79
2022/02/16 03:11:01;;;;;;;65.00;23.77;;;;;;;-0.04;78.45;99176.34;1782528;80;21005;-79
2022/02/16 03:13:27;;;;;;;58.40;22.77;;;;;;;-0.06;78.04;99174.17;1753465;80;21099;-80
2022/02/16 03:15:57;;;;;;;63.83;22.98;;;;;;;-0.12;78.85;99181.73;1780529;80;21116;-80
2022/02/16 03:18:26;;;;;;;51.73;22.67;;;;;;;-0.12;79.32;99185.95;1759535;80;21016;-79
2022/02/16 03:20:53;;;;;;;66.57;26.57;;;;;;;-0.08;78.83;99190.30;1741749;80;20991;-79
2022/02/16 03:23:20;;;;;;;60.63;25.02;;;;;;;-0.07;79.37;99186.50;1748696;82;20980;-80
2022/02/16 03:25:47;;;;;;;62.53;23.22;;;;;;;-0.03;79.72;99194.66;1748541;82;21035;-83
2022/02/16 03:28:15;;;;;;;63.25;26.20;;;;;;;0.01;78.45;99187.07;1740580;82;21040;-80
2022/02/16 03:30:44;;;;;;;56.77;24.15;;;;;;;0.02;78.51;99174.33;1753869;81;21243;-80
2022/02/16 03:33:10;;;;;;;59.15;25.55;;;;;;;0.05;79.00;99167.12;1744661;81;21004;-80
2022/02/16 03:35:37;;;;;;;63.23;26.10;;;;;;;0.06;79.65;99165.88;1741402;82;20948;-80
2022/02/16 03:38:04;;;;;;;62.45;26.17;;;;;;;0.07;79.19;99171.84;1711823;84;21082;-80
2022/02/16 03:40:31;;;;;;;68.37;23.22;;;;;;;0.06;79.40;99183.77;1740475;80;21015;-78
2022/02/16 03:42:58;;;;;;;58.75;23.52;;;;;;;0.07;77.16;99188.03;1736766;82;20984;-78
2022/02/16 03:45:27;;;;;;;62.55;24.65;;;;;;;-0.01;76.37;99186.61;1711394;81;20956;-80
2022/02/16 03:47:55;;;;;;;60.88;24.02;;;;;;;-0.10;78.44;99185.57;1762666;81;20933;-80
2022/02/16 03:50:23;;;;;;;63.48;26.77;;;;;;;-0.08;79.07;99198.84;1749237;82;21028;-80
2022/02/16 03:52:52;;;;;;;55.03;23.95;;;;;;;-0.07;79.04;99205.66;1749417;81;20957;-79
2022/02/16 03:55:20;;;;;;;61.53;25.77;;;;;;;-0.05;79.24;99206.98;1761821;80;21031;-80
2022/02/16 03:57:46;;;;;;;72.97;24.47;;;;;;;-0.04;79.49;99200.63;1749011;81;21057;-80
2022/02/16 04:00:15;;;;;;;62.70;26.90;;;;;;;0.01;79.39;99193.03;1739846;81;21050;-78
2022/02/16 04:02:42;;;;;;;60.30;24.60;;;;;;;0.05;78.81;99189.70;1772611;81;21024;-82
2022/02/16 04:05:10;;;;;;;62.20;26.30;;;;;;;0.05;78.80;99184.59;1765423;81;21007;-81
2022/02/16 04:07:37;;;;;;;65.20;24.12;;;;;;;0.04;77.89;99190.55;1763908;81;20994;-78
2022/02/16 04:10:05;;;;;;;64.87;25.65;;;;;;;0.04;78.19;99184.55;1762667;80;21056;-80
2022/02/16 04:12:32;;;;;;;61.88;26.80;;;;;;;0.00;79.40;99177.27;1767715;81;21173;-80
2022/02/16 04:14:59;;;;;;;70.80;25.52;;;;;;;0.01;78.66;99192.19;1763927;81;20954;-80
2022/02/16 04:17:25;;;;;;;71.90;27.22;;;;;;;0.01;79.09;99189.20;1763585;81;21463;-80
2022/02/16 04:19:55;;;;;;;64.72;24.43;;;;;;;0.04;79.03;99186.72;1763326;81;21039;-79
2022/02/16 04:22:22;;;;;;;68.78;26.07;;;;;;;0.05;79.82;99179.48;1729252;82;20927;-81
2022/02/16 04:24:48;;;;;;;64.50;25.45;;;;;;;0.05;78.36;99187.14;1763221;81;20988;-80
2022/02/16 04:27:16;;;;;;;59.70;25.90;;;;;;;0.06;78.22;99193.11;1756053;81;20991;-79
2022/02/16 04:29:43;;;;;;;61.68;24.00;;;;;;;0.08;78.71;99191.05;1762965;81;21032;-79
2022/02/16 04:32:09;;;;;;;58.45;24.18;;;;;;;0.14;79.25;99192.83;1753772;81;20967;-79
2022/02/16 04:34:37;;;;;;;66.20;27.13;;;;;;;0.16;78.22;99189.49;1770212;81;21039;-80
2022/02/16 04:37:05;;;;;;;57.65;24.02;;;;;;;0.20;78.90;99180.19;1763743;81;20997;-80
2022/02/16 04:39:31;;;;;;;62.43;26.65;;;;;;;0.24;78.75;99185.80;1770398;80;21042;-80
2022/02/16 04:41:58;;;;;;;65.60;26.55;;;;;;;0.27;78.70;99180.72;1758321;80;21012;-83
2022/02/16 04:44:25;;;;;;;64.42;27.15;;;;;;;0.28;77.77;99179.91;1776967;80;20999;-82
2022/02/16 04:46:56;;;;;;;63.55;25.88;;;;;;;0.24;78.39;99196.42;1770744;80;20994;-80
2022/02/16 04:49:24;;;;;;;65.60;28.73;;;;;;;0.26;78.46;99203.30;1758396;80;21514;-80
2022/02/16 04:51:51;;;;;;;96.35;36.35;;;;;;;0.26;77.27;99203.70;1764409;81;20993;-80
2022/02/16 04:54:17;;;;;;;70.95;28.70;;;;;;;0.25;78.59;99202.84;1767866;81;21003;-82
2022/02/16 04:56:44;;;;;;;68.57;31.10;;;;;;;0.29;78.80;99196.09;1788380;80;21045;-82
2022/02/16 04:59:10;;;;;;;68.67;26.35;;;;;;;0.33;78.62;99193.61;1773308;77;20971;-82
2022/02/16 05:01:37;;;;;;;69.40;30.52;;;;;;;0.32;77.53;99191.91;1757787;81;21011;-83
2022/02/16 05:04:06;;;;;;;60.33;24.80;;;;;;;0.31;78.84;99185.05;1752435;79;20936;-83
2022/02/16 05:06:34;;;;;;;59.63;25.17;;;;;;;0.35;77.44;99184.27;1767958;76;21036;-81
2022/02/16 05:09:02;;;;;;;75.32;32.03;;;;;;;0.33;77.62;99196.17;1683560;84;21017;-80
2022/02/16 05:11:28;;;;;;;62.58;26.57;;;;;;;0.35;78.10;99203.88;1672203;85;21015;-80
2022/02/16 05:14:00;;;;;;;79.42;33.45;;;;;;;0.34;77.61;99199.19;1751586;81;21071;-79
2022/02/16 05:16:27;;;;;;;72.65;28.42;;;;;;;0.36;78.61;99193.68;1735602;82;21015;-81
2022/02/16 05:18:59;;;;;;;72.20;26.12;;;;;;;0.35;78.39;99186.83;1680779;83;21031;-80
2022/02/16 05:21:27;;;;;;;65.05;25.60;;;;;;;0.37;78.69;99186.86;1729777;82;21020;-81
2022/02/16 05:23:56;;;;;;;75.28;26.87;;;;;;;0.39;78.04;99190.30;1746503;82;21038;-80
2022/02/16 05:26:23;;;;;;;66.47;27.20;;;;;;;0.38;78.77;99191.16;1729150;83;21083;-81
2022/02/16 05:28:50;;;;;;;58.25;26.90;;;;;;;0.38;78.68;99180.50;1700009;83;20984;-81
2022/02/16 05:31:17;;;;;;;65.40;25.85;;;;;;;0.42;79.01;99172.47;1733610;78;21011;-82
2022/02/16 05:33:44;;;;;;;64.92;25.68;;;;;;;0.44;78.92;99178.86;1732437;83;21223;-82
2022/02/16 05:36:12;;;;;;;60.33;24.00;;;;;;;0.38;79.48;99181.78;1730397;82;21019;-80
2022/02/16 05:38:40;;;;;;;63.35;28.62;;;;;;;0.41;78.22;99177.55;1741458;82;20967;-80
2022/02/16 05:41:07;;;;;;;64.20;26.40;;;;;;;0.35;78.54;99179.58;1732916;82;21106;-80
2022/02/16 05:43:35;;;;;;;62.85;26.93;;;;;;;0.37;78.15;99181.75;1735206;82;20991;-80
2022/02/16 05:46:03;;;;;;;63.70;27.22;;;;;;;0.37;77.35;99182.59;1753315;81;21070;-80
2022/02/16 05:48:30;;;;;;;74.85;28.57;;;;;;;0.37;78.69;99200.50;1734710;82;21039;-79
2022/02/16 05:50:57;;;;;;;70.52;30.30;;;;;;;0.41;77.30;99201.42;1726242;83;21500;-79
2022/02/16 05:53:24;;;;;;;70.55;29.27;;;;;;;0.41;77.36;99199.29;1739637;82;21241;-82
2022/02/16 05:55:51;;;;;;;67.90;28.62;;;;;;;0.32;78.42;99191.02;1733684;81;20959;-81
2022/02/16 05:58:17;;;;;;;66.45;25.97;;;;;;;0.43;79.02;99209.98;1741040;81;20966;-82
2022/02/16 06:00:44;;;;;;;70.50;30.12;;;;;;;0.44;78.62;99214.28;1754734;81;21019;-82
2022/02/16 06:03:12;;;;;;;72.00;29.75;;;;;;;0.49;78.42;99211.79;1732357;80;21034;-81
2022/02/16 06:05:39;;;;;;;72.27;26.68;;;;;;;0.54;78.65;99216.16;1732789;82;21011;-82
2022/02/16 06:08:06;;;;;;;74.95;29.92;;;;;;;0.59;78.74;99210.68;1730287;82;21515;-80
2022/02/16 06:10:33;;;;;;;67.50;27.37;;;;;;;0.67;78.58;99221.47;1720588;82;20981;-80
2022/02/16 06:13:00;;;;;;;77.53;30.77;;;;;;;0.73;78.77;99224.13;1727207;83;21015;-80
2022/02/16 06:15:28;;;;;;;81.10;29.50;;;;;;;0.79;78.40;99215.27;1697224;84;21023;-79
2022/02/16 06:17:55;;;;;;;72.70;29.85;;;;;;;0.84;78.41;99213.66;1696753;85;20988;-81
2022/02/16 06:20:23;;;;;;;84.07;32.50;;;;;;;0.87;78.19;99207.29;1734780;82;21047;-82
2022/02/16 06:22:53;;;;;;;74.77;29.63;;;;;;;0.93;78.22;99211.22;1745934;82;20993;-80
2022/02/16 06:25:21;;;;;;;76.95;33.20;;;;;;;0.98;78.28;99208.33;1704540;83;20981;-83
2022/02/16 06:27:49;;;;;;;81.70;30.95;;;;;;;1.04;78.10;99221.64;1698237;83;21073;-80
2022/02/16 06:30:17;;;;;;;81.00;33.70;;;;;;;1.11;78.04;99213.63;1732855;83;20995;-82
2022/02/16 06:32:47;;;;;;;78.12;32.45;;;;;;;1.16;77.86;99216.70;1717006;83;21000;-82
2022/02/16 06:35:15;;;;;;;75.10;30.80;;;;;;;1.22;77.78;99219.77;1728711;83;21061;-82
2022/02/16 06:37:41;;;;;;;99.60;36.58;;;;;;;1.26;77.68;99227.09;1717065;83;21044;-82
2022/02/16 06:40:09;;;;;;;210.40;65.52;;;;;;;1.30;77.72;99223.73;1717014;84;21052;-81
2022/02/16 06:42:39;;;;;;;151.50;54.73;;;;;;;1.33;77.60;99227.59;1721847;83;21036;-81
2022/02/16 06:45:08;;;;;;;130.90;50.00;;;;;;;1.37;77.53;99226.80;1728231;83;20920;-81
2022/02/16 06:47:37;;;;;;;103.70;41.33;;;;;;;1.40;77.25;99220.45;1732636;82;21047;-82
2022/02/16 06:50:05;;;;;;;94.37;37.70;;;;;;;1.43;77.56;99220.91;1725670;83;21078;-81
2022/02/16 06:52:32;;;;;;;78.25;31.05;;;;;;;1.48;77.24;99228.25;1724171;83;20973;-82
2022/02/16 06:54:59;;;;;;;78.87;35.03;;;;;;;1.51;77.09;99232.11;1722612;83;20992;-83
2022/02/16 06:57:26;;;;;;;80.85;34.13;;;;;;;1.56;77.12;99224.08;1706812;82;20962;-82
2022/02/16 06:59:57;;;;;;;79.47;30.52;;;;;;;1.58;76.84;99224.53;1719283;80;21216;-81
2022/02/16 07:02:25;;;;;;;87.90;33.78;;;;;;;1.63;76.72;99213.05;1726517;81;21071;-81
2022/02/16 07:04:53;;;;;;;89.67;36.33;;;;;;;1.69;76.67;99203.30;1734599;81;21045;-81
2022/02/16 07:07:20;;;;;;;106.00;47.00;;;;;;;1.70;76.40;99206.31;1730201;82;21009;-80
2022/02/16 07:09:46;;;;;;;89.45;42.62;;;;;;;1.75;76.47;99204.26;1722599;82;21046;-78
2022/02/16 07:12:13;;;;;;;84.20;33.80;;;;;;;1.84;75.50;99206.05;1722608;82;21007;-79
2022/02/16 07:14:40;;;;;;;84.17;34.98;;;;;;;1.81;75.20;99203.88;1696246;83;20940;-81
2022/02/16 07:17:07;;;;;;;87.65;33.80;;;;;;;1.76;75.84;99199.55;1723388;82;21005;-78
2022/02/16 07:19:35;;;;;;;87.25;36.05;;;;;;;1.83;76.00;99206.03;1701289;82;21032;-81
2022/02/16 07:22:04;;;;;;;80.38;35.43;;;;;;;1.87;75.01;99207.39;1720321;81;21077;-81
2022/02/16 07:24:31;;;;;;;81.85;34.80;;;;;;;1.80;75.28;99199.17;1720935;81;21035;-81
2022/02/16 07:26:59;;;;;;;77.05;32.93;;;;;;;1.85;75.64;99209.08;1720352;82;21012;-78
2022/02/16 07:29:28;;;;;;;78.00;35.17;;;;;;;1.92;75.68;99212.56;1720850;81;21151;-80
2022/02/16 07:31:55;;;;;;;74.25;30.00;;;;;;;1.98;75.64;99210.06;1717883;82;21068;-79
2022/02/16 07:34:24;;;;;;;76.22;29.52;;;;;;;2.04;75.26;99210.13;1720315;83;21000;-82
2022/02/16 07:36:51;;;;;;;66.60;28.98;;;;;;;2.02;75.43;99210.97;1748379;81;20964;-81
2022/02/16 07:39:18;;;;;;;72.45;30.02;;;;;;;2.05;75.67;99209.70;1743562;82;20994;-79
2022/02/16 07:41:45;;;;;;;92.22;37.55;;;;;;;2.12;75.65;99209.78;1744429;80;20988;-80
2022/02/16 07:44:17;;;;;;;79.00;32.58;;;;;;;2.22;75.63;99202.20;1728854;81;21019;-83
2022/02/16 07:46:45;;;;;;;96.05;38.38;;;;;;;2.34;75.43;99194.19;1750697;81;21003;-81
2022/02/16 07:49:12;;;;;;;77.15;33.70;;;;;;;2.42;74.87;99193.41;1749253;80;20976;-82
2022/02/16 07:51:41;;;;;;;99.52;36.35;;;;;;;2.35;74.35;99189.51;1678001;82;20999;-83
2022/02/16 07:54:12;;;;;;;73.67;32.53;;;;;;;2.39;74.33;99188.69;1754824;80;21055;-82
2022/02/16 07:56:39;;;;;;;87.78;39.18;;;;;;;2.34;74.25;99186.92;1742851;80;21024;-81
2022/02/16 07:59:06;;;;;;;93.82;41.15;;;;;;;2.34;74.01;99186.92;1744400;81;21000;-81
2022/02/16 08:01:33;;;;;;;83.62;38.85;;;;;;;2.37;74.55;99183.11;1728702;82;21020;-79
2022/02/16 08:04:18;;;;;;;83.65;37.67;;;;;;;2.42;74.65;99186.56;1752447;81;21017;-80
2022/02/16 08:06:48;;;;;;;92.55;35.55;;;;;;;2.50;74.83;99182.79;1741602;81;20990;-78
2022/02/16 08:09:16;;;;;;;86.08;36.17;;;;;;;2.64;75.07;99185.05;1752398;80;20996;-78
2022/02/16 08:11:45;;;;;;;88.35;38.75;;;;;;;2.79;74.64;99180.03;1749325;80;21003;-78
2022/02/16 08:14:12;;;;;;;91.80;38.17;;;;;;;2.91;74.56;99179.27;1750325;80;21043;-80
2022/02/16 08:16:50;;;;;;;89.70;40.17;;;;;;;3.05;74.64;99179.80;1756767;80;21044;-79
2022/02/16 08:19:18;;;;;;;90.10;41.35;;;;;;;3.20;73.98;99167.02;1748889;81;21001;-80
2022/02/16 08:21:46;;;;;;;108.45;42.67;;;;;;;3.30;73.85;99169.22;1754270;80;21041;-80
2022/02/16 08:24:13;;;;;;;88.42;39.20;;;;;;;3.45;73.87;99165.89;1750656;80;20980;-88
2022/02/16 08:26:40;;;;;;;96.25;38.60;;;;;;;3.60;73.47;99164.64;1746120;81;21093;-80
2022/02/16 08:29:06;;;;;;;107.58;45.75;;;;;;;3.75;73.04;99168.57;1747928;80;21066;-84
2022/02/16 08:31:34;;;;;;;77.78;35.90;;;;;;;3.90;72.71;99167.78;1754457;80;20983;-83
2022/02/16 08:34:20;;;;;;;79.03;36.35;;;;;;;4.08;72.48;99154.50;1744926;80;21107;-82
2022/02/16 08:36:55;;;;;;;75.65;36.50;;;;;;;4.13;72.03;99154.95;1748602;80;21004;-82
2022/02/16 08:39:17;;;;;;;78.33;33.78;;;;;;;4.11;71.14;99151.52;1716811;81;21070;-82
2022/02/16 08:41:44;;;;;;;88.87;37.95;;;;;;;4.21;71.06;99152.83;1751616;80;21043;-83
2022/02/16 08:44:11;;;;;;;74.37;35.00;;;;;;;4.24;70.80;99154.11;1752864;80;21289;-83
2022/02/16 08:46:37;;;;;;;101.10;46.35;;;;;;;4.37;70.99;99139.96;1770265;79;20989;-83
2022/02/16 08:49:04;;;;;;;88.70;38.05;;;;;;;4.31;70.95;99140.40;1745783;80;21004;-84
2022/02/16 08:51:31;;;;;;;82.15;35.58;;;;;;;4.37;70.37;99140.41;1759490;78;21027;-86
2022/02/16 08:53:59;;;;;;;93.82;37.78;;;;;;;4.42;70.57;99133.55;1751996;81;20957;-83
2022/02/16 08:56:25;;;;;;;88.62;38.30;;;;;;;4.48;69.88;99138.70;1762745;80;21038;-81
2022/02/16 08:58:52;;;;;;;92.50;41.37;;;;;;;4.56;70.20;99138.70;1752235;79;21059;-84
2022/02/16 09:01:18;;;;;;;90.32;39.25;;;;;;;4.69;70.31;99134.39;1754176;78;21015;-82
2022/02/16 09:03:45;;;;;;;88.67;36.83;;;;;;;4.85;69.87;99144.25;1760083;78;21019;-85
2022/02/16 09:06:12;;;;;;;86.92;38.08;;;;;;;4.80;68.71;99141.69;1729539;81;21644;-88
2022/02/16 09:08:38;;;;;;;84.13;38.70;;;;;;;4.71;68.75;99139.11;1752627;80;21031;-89
2022/02/16 09:11:05;;;;;;;93.97;40.17;;;;;;;4.80;69.08;99132.67;1762461;80;21089;-86
2022/02/16 09:13:32;;;;;;;88.47;38.50;;;;;;;4.87;68.95;99125.34;1747694;81;21003;-90
2022/02/16 09:15:58;;;;;;;77.35;34.88;;;;;;;4.87;69.18;99127.92;1750623;80;20996;-85
2022/02/16 09:18:25;;;;;;;76.33;34.40;;;;;;;4.90;68.74;99122.78;1752087;79;21226;-86
2022/02/16 09:20:52;;;;;;;94.60;38.83;;;;;;;5.01;68.63;99126.61;1764861;78;21023;-86
2022/02/16 09:23:18;;;;;;;84.62;36.98;;;;;;;5.03;68.85;99113.30;1749082;81;21034;-82
2022/02/16 09:25:45;;;;;;;87.17;40.10;;;;;;;5.23;68.49;99122.70;1751328;80;21013;-84
2022/02/16 09:28:12;;;;;;;77.40;36.23;;;;;;;5.36;68.18;99123.94;1742978;80;21045;-82
2022/02/16 09:30:38;;;;;;;69.27;32.75;;;;;;;5.42;68.22;99127.38;1752617;80;21017;-83
2022/02/16 09:33:08;;;;;;;79.17;34.63;;;;;;;5.54;68.18;99125.59;1752868;81;21004;-84
2022/02/16 09:35:35;;;;;;;80.30;35.17;;;;;;;5.57;68.18;99123.42;1766901;81;21417;-83
2022/02/16 09:38:01;;;;;;;84.42;37.73;;;;;;;5.67;68.02;99118.67;1749311;81;20987;-81
2022/02/16 09:40:30;;;;;;;81.90;38.23;;;;;;;5.79;67.36;99115.17;1755959;80;20993;-85
2022/02/16 09:43:02;;;;;;;90.28;36.23;;;;;;;5.94;68.37;99111.63;1751301;80;21109;-84
2022/02/16 09:45:30;;;;;;;83.75;36.35;;;;;;;6.04;67.46;99109.89;1748365;80;21259;-83
2022/02/16 09:47:58;;;;;;;81.25;37.05;;;;;;;6.19;67.06;99114.95;1776683;81;21020;-83
2022/02/16 09:50:25;;;;;;;87.35;35.65;;;;;;;6.35;67.16;99102.78;1767449;78;21113;-89
2022/02/16 09:52:52;;;;;;;87.80;37.40;;;;;;;6.47;66.95;99100.54;1763380;80;21055;-89
2022/02/16 09:55:19;;;;;;;84.58;36.63;;;;;;;6.62;67.11;99098.24;1769654;80;21137;-88
2022/02/16 09:57:46;;;;;;;77.60;34.78;;;;;;;6.73;67.10;99096.43;1737955;81;21721;-88
2022/02/16 10:00:15;;;;;;;73.90;33.42;;;;;;;6.79;65.62;99091.64;1767467;79;20992;-86
2022/02/16 10:02:44;;;;;;;75.08;32.80;;;;;;;6.88;65.20;99089.80;1774826;80;20985;-83
2022/02/16 10:05:15;;;;;;;69.32;31.35;;;;;;;6.94;65.43;99083.30;1766657;81;21004;-82
2022/02/16 10:07:45;;;;;;;61.90;30.37;;;;;;;7.01;65.02;99081.94;1776367;79;21027;-83
2022/02/16 10:10:22;;;;;;;68.85;30.52;;;;;;;7.07;65.41;99080.57;1776415;79;21035;-84
2022/02/16 10:12:54;;;;;;;61.80;29.42;;;;;;;7.09;65.01;99077.09;1778391;79;20987;-83
2022/02/16 10:15:39;;;;;;;67.90;30.80;;;;;;;7.19;65.22;99074.41;1781805;79;20987;-83
2022/02/16 10:18:14;;;;;;;72.32;30.65;;;;;;;7.21;65.55;99068.34;1778951;79;21518;-83
2022/02/16 10:20:42;;;;;;;69.47;29.30;;;;;;;7.25;65.36;99068.72;1775677;79;20994;-83
2022/02/16 10:23:09;;;;;;;67.90;30.12;;;;;;;7.29;65.23;99052.73;1773318;81;20988;-83
2022/02/16 10:25:36;;;;;;;70.20;31.50;;;;;;;7.24;64.30;99059.27;1784855;80;21304;-84
2022/02/16 10:28:21;;;;;;;68.10;31.35;;;;;;;7.28;64.81;99044.55;1781200;81;20991;-83
2022/02/16 10:31:09;;;;;;;69.72;32.90;;;;;;;7.29;65.03;99048.41;1781177;80;21001;-83
2022/02/16 10:33:40;;;;;;;67.17;30.50;;;;;;;7.31;64.42;99040.64;1780125;77;20999;-83
2022/02/16 10:36:14;;;;;;;62.27;28.42;;;;;;;7.43;63.97;99028.83;1786341;79;21051;-83
2022/02/16 10:39:10;;;;;;;59.75;29.05;;;;;;;7.31;64.60;99024.67;1772472;81;21016;-83
2022/02/16 10:41:53;;;;;;;62.70;30.08;;;;;;;7.40;64.14;99026.72;1771698;80;21004;-84
2022/02/16 10:44:31;;;;;;;73.97;31.65;;;;;;;7.50;64.58;99027.01;1748342;80;20988;-83
2022/02/16 10:47:04;;;;;;;59.38;28.85;;;;;;;7.54;63.99;99019.62;1747094;80;21098;-82
2022/02/16 10:49:34;;;;;;;63.05;29.82;;;;;;;7.61;64.34;99004.88;1724648;81;20989;-82
2022/02/16 10:52:18;;;;;;;61.13;28.32;;;;;;;7.68;63.95;99002.60;1717601;82;21043;-83
2022/02/16 10:54:58;;;;;;;60.15;27.45;;;;;;;7.77;63.85;99001.19;1714103;82;21060;-83
2022/02/16 10:57:27;;;;;;;60.43;27.85;;;;;;;7.83;63.52;98993.77;1713443;83;21027;-81
2022/02/16 10:59:54;;;;;;;59.80;26.93;;;;;;;7.91;64.04;98994.05;1715006;83;21014;-82
2022/02/16 11:02:21;;;;;;;63.75;28.42;;;;;;;8.00;63.59;98985.72;1719458;82;20984;-83
2022/02/16 11:04:48;;;;;;;59.93;29.52;;;;;;;8.10;63.45;98982.97;1716996;82;21083;-83
2022/02/16 11:07:22;;;;;;;57.62;28.25;;;;;;;8.25;63.55;98977.95;1713816;82;21115;-82
2022/02/16 11:09:56;;;;;;;58.10;27.67;;;;;;;8.32;63.62;98982.16;1717233;82;20996;-83
2022/02/16 11:12:23;;;;;;;59.48;28.70;;;;;;;8.30;62.95;98972.71;1714152;83;21140;-82
2022/02/16 11:14:53;;;;;;;61.10;29.90;;;;;;;8.36;62.95;98977.33;1717714;82;21002;-83
2022/02/16 11:17:24;;;;;;;58.02;27.77;;;;;;;8.38;62.66;98974.72;1727680;82;21545;-82
2022/02/16 11:19:51;;;;;;;62.67;28.80;;;;;;;8.48;62.29;98977.58;1713421;82;21008;-82
2022/02/16 11:22:24;;;;;;;53.92;27.62;;;;;;;8.61;62.15;98969.12;1692524;84;20990;-82
2022/02/16 11:24:51;;;;;;;69.47;27.95;;;;;;;8.67;61.71;98973.34;1710111;82;21043;-83
2022/02/16 11:27:40;;;;;;;58.00;28.50;;;;;;;8.73;61.06;98962.44;1715911;82;21158;-82
2022/02/16 11:30:10;;;;;;;63.05;28.27;;;;;;;8.78;61.31;98959.73;1718631;80;21023;-85